Observations for Trim Market St
| Time | AQI | Temp °C | Hum % | Pres Pa | CO μg/m³ | H₂S μg/m³ | NO μg/m³ | NO₂ μg/m³ | O₃ μg/m³ | SO₂ μg/m³ | PM1 μg/m³ | PM2.5 μg/m³ | PM10 μg/m³ |
|---|---|---|---|---|---|---|---|---|---|---|---|---|---|
| Sunday 23 August 2026 | |||||||||||||
| 14:16 | 2 | 23.9 | 37 | 65,615 | 0 | 0 | 1.02 | 11.84 | 89.45 | 0 | 1.43 | 4.59 | 5.05 |
| 14:15 | 2 | 23.9 | 37 | 65,627 | 0 | 0 | 1.1 | 12.75 | 74.49 | 0 | 1.43 | 4.6 | 5.05 |
| 14:14 | 2 | 23.9 | 37 | 65,611 | 0 | 0 | 1.1 | 12.14 | 98.44 | 0 | 2.14 | 5.66 | 6.7 |
| 14:13 | 2 | 23.9 | 37 | 65,615 | 0 | 0 | 1.1 | 32.52 | 64.07 | 0 | 1.43 | 4.6 | 5.06 |
| 14:12 | 2 | 23.9 | 37 | 65,621 | 0 | 0 | 1.09 | 11.81 | 75.49 | 0 | 0.71 | 3.54 | 3.89 |
| 14:11 | 2 | 24 | 37 | 65,663 | 0 | 0 | 1.02 | 14.26 | 75.46 | 0 | 1.43 | 4.61 | 5.06 |
| 14:10 | 2 | 24 | 37 | 65,659 | 0 | 0 | 0.92 | 11.66 | 90.73 | 0 | 1.43 | 4.61 | 5.08 |
| 14:09 | 2 | 24 | 37 | 65,653 | 0 | 0 | 0.9 | 11.73 | 88.33 | 0 | 2.14 | 4.61 | 5.08 |
| 14:08 | 2 | 24 | 37 | 65,643 | 0 | 0 | 0.9 | 11.46 | 88.98 | 0 | 2.14 | 5.69 | 5.88 |
| 14:07 | 2 | 24 | 37 | 65,629 | 0 | 0 | 0.92 | 10.83 | 91.76 | 0 | 2.14 | 4.62 | 5.09 |
| 14:06 | 2 | 24.1 | 37 | 65,641 | 0 | 0 | 0.88 | 11.65 | 86.51 | 0 | 0.71 | 4.09 | 4.5 |
| 14:05 | 2 | 24.1 | 37 | 65,655 | 0 | 0 | 0.87 | 10.11 | 74.7 | 0 | 0 | 3.03 | 3.33 |
| 13:58 | 2 | 24.1 | 36 | 65,680 | 0 | 0 | 1.07 | 12.74 | 72.94 | 0 | 0 | 3.03 | 3.33 |
| 13:55 | 2 | 24.2 | 37 | 65,661 | 0 | 0 | 0.99 | 12.39 | 87.97 | 0 | 0 | 3.56 | 3.91 |
| 13:54 | 2 | 24.2 | 37 | 65,655 | 0 | 0 | 0.99 | 9.65 | 86.28 | 0 | 0 | 3.56 | 3.92 |
| 13:53 | 2 | 24.1 | 37 | 65,641 | 0 | 0 | 0.99 | 11.75 | 82.52 | 0 | 2.14 | 5.69 | 5.88 |
| 13:48 | 2 | 24.2 | 36 | 65,623 | 0 | 0 | 1.08 | 14.09 | 132.59 | 0 | 0.71 | 4.1 | 4.51 |
| 13:47 | 2 | 24.2 | 36 | 65,637 | 0 | 0 | 1.04 | 9.18 | 79.88 | 0 | 1.43 | 4.1 | 4.51 |
| 13:45 | 2 | 24.2 | 36 | 65,643 | 0 | 0 | 0.98 | 12.66 | 82.02 | 0 | 0 | 3.57 | 3.93 |
| 13:44 | 2 | 24.3 | 36 | 65,659 | 0 | 0 | 0.94 | 12.44 | 80.94 | 0 | 0.71 | 5.18 | 5.87 |